CheckWX is a tool to help pilots better visualize weather data.  It is not intended as a substitute for an official pre-flight weather briefing.

03:59:14 UTC

KLBX METAR
Texas Gulf Coast Regional Airport
Angleton/Lake Jackson, Texas, USA
Current

1 hour ago

KLBX 270253Z AUTO 12007KT 10SM CLR 25/22 A3002 RMK AO2 SLP164 T02500217 51003
Observed
May-27 @ 02:53 UTC
Wind
  • 120° at 7 KTS
Visibility
10 SM
Flight Rules
VFR
Cloud Levels
  • Clear skies
Temperature
25°C / 77°F
Dewpoint
22°C / 72°F
Humidity
83%
Altimeter
30.02" Hg
Pressure
1016.62 hPa
Previous

2 hours ago

KLBX 270153Z AUTO 12005KT 10SM FEW023 SCT036 26/22 A3001 RMK AO2 SLP162 T02560217
Observed
May-27 @ 01:53 UTC
Wind
  • 120° at 5 KTS
Visibility
10 SM
Flight Rules
VFR
Cloud Levels
  • Few at 2,300' AGL
  • Scattered at 3,600' AGL
Temperature
26°C / 79°F
Dewpoint
22°C / 72°F
Humidity
79%
Altimeter
30.01" Hg
Pressure
1016.22 hPa
Previous

3 hours ago

KLBX 270053Z AUTO 12008KT 10SM CLR 27/22 A3001 RMK AO2 SLP162 T02670217
Observed
May-27 @ 00:53 UTC
Wind
  • 120° at 8 KTS
Visibility
10 SM
Flight Rules
VFR
Cloud Levels
  • Clear skies
Temperature
27°C / 81°F
Dewpoint
22°C / 72°F
Heat Index
29°C / 85°F
Humidity
74%
Altimeter
30.01" Hg
Pressure
1016.22 hPa